Terminal Aerodrome Forecast
Issued by NWS

Home | Current Version | Previous Version | Text Only | Print | Product List | Glossary On
Versions: 1 2 3 4 5 6 7 8 9 10 11 12 13 14 15 16 17 18
000
FTUS42 KGSP 212340
TAFGMU
TAF
KGMU 212340Z 2200/2224 VRB03KT P6SM BKN070
     FM220300 VRB03KT P6SM BKN015
     FM220500 VRB03KT 1SM BR BKN015
     FM220700 VRB03KT 4SM BR BKN030
     FM220900 VRB03KT 6SM BR SCT030 BKN050
     FM221200 35007KT P6SM SCT200=

USA.gov is the U.S. government's official web portal to all federal, state and local government web resources and services.